Time;durP1;ratioP1;P1;durP2;ratioP2;P2;SDS_P1;SDS_P2;PMS_P1;PMS_P2;Temp;Humidity;BMP_temperature;BMP_pressure;BME280_temperature;BME280_humidity;BME280_pressure;Samples;Min_cycle;Max_cycle;Signal;HPM_P1;HPM_P2
2022/05/20 00:01:28;;;;;;;4.97;3.40;;;5.60;99.90;;;;;;5271721;28;20035;-72
2022/05/20 00:03:59;;;;;;;6.28;3.13;;;5.10;99.90;;;;;;5271473;28;20024;-72
2022/05/20 00:06:30;;;;;;;7.50;3.33;;;5.60;99.90;;;;;;5271578;28;20032;-72
2022/05/20 00:09:01;;;;;;;4.13;2.70;;;5.70;99.90;;;;;;5271482;28;20020;-72
2022/05/20 00:11:32;;;;;;;4.43;2.85;;;5.10;99.90;;;;;;5271616;28;20024;-72
2022/05/20 00:14:05;;;;;;;4.25;2.90;;;5.20;99.90;;;;;;5271492;28;20052;-72
2022/05/20 00:16:36;;;;;;;5.18;3.33;;;5.00;99.90;;;;;;5271393;28;20023;-73
2022/05/20 00:19:08;;;;;;;5.10;3.65;;;5.40;99.90;;;;;;5271214;28;20032;-72
2022/05/20 00:21:39;;;;;;;4.13;2.95;;;5.40;99.90;;;;;;5271144;28;20146;-72
2022/05/20 00:24:10;;;;;;;4.07;3.42;;;5.20;99.90;;;;;;5271226;28;20486;-72
2022/05/20 00:26:41;;;;;;;4.57;3.15;;;5.00;99.90;;;;;;5270967;28;20028;-72
2022/05/20 00:29:12;;;;;;;4.65;3.15;;;5.30;99.90;;;;;;5270767;28;20048;-72
2022/05/20 00:31:43;;;;;;;5.18;3.20;;;4.90;99.90;;;;;;5271010;28;20372;-72
2022/05/20 00:34:13;;;;;;;5.22;2.95;;;5.40;99.90;;;;;;5271061;28;20486;-72
2022/05/20 00:36:44;;;;;;;5.78;3.00;;;5.50;99.90;;;;;;5270877;28;20434;-72
2022/05/20 00:39:15;;;;;;;5.68;2.90;;;4.90;99.90;;;;;;5270816;28;20114;-72
2022/05/20 00:41:46;;;;;;;4.28;2.80;;;5.00;99.90;;;;;;5270879;28;20032;-72
2022/05/20 00:44:17;;;;;;;4.72;3.20;;;5.30;99.90;;;;;;5270811;28;20036;-72
2022/05/20 00:46:47;;;;;;;4.35;2.60;;;5.40;99.90;;;;;;5270806;28;20055;-72
2022/05/20 00:49:18;;;;;;;4.88;3.00;;;5.10;99.90;;;;;;5270620;28;20039;-72
2022/05/20 00:51:52;;;;;;;3.72;2.78;;;5.30;99.90;;;;;;5270616;28;20521;-72
2022/05/20 00:54:30;;;;;;;7.25;2.88;;;5.30;99.90;;;;;;5270654;28;20043;-72
2022/05/20 00:57:06;;;;;;;5.30;3.38;;;4.50;99.90;;;;;;5270678;28;20028;-72
2022/05/20 00:59:42;;;;;;;4.70;3.05;;;4.80;99.90;;;;;;5269355;28;20383;-72
2022/05/20 01:02:19;;;;;;;5.13;2.97;;;5.50;99.90;;;;;;5270514;28;20024;-72
2022/05/20 01:04:52;;;;;;;4.47;2.70;;;4.90;99.90;;;;;;5270417;28;20028;-72
2022/05/20 01:07:25;;;;;;;6.18;3.50;;;4.90;99.90;;;;;;5270361;28;20016;-72
2022/05/20 01:09:56;;;;;;;3.90;2.90;;;5.00;99.90;;;;;;5270369;28;20420;-72
2022/05/20 01:12:28;;;;;;;5.32;3.53;;;4.60;99.90;;;;;;5270122;28;20070;-72
2022/05/20 01:14:59;;;;;;;4.38;3.08;;;4.80;99.90;;;;;;5270222;28;20035;-72
2022/05/20 01:17:30;;;;;;;6.38;3.17;;;5.00;99.90;;;;;;5270094;28;20024;-72
2022/05/20 01:20:02;;;;;;;5.85;3.30;;;4.80;99.90;;;;;;5269981;28;20118;-72
2022/05/20 01:23:00;;;;;;;5.22;2.92;;;4.60;99.90;;;;;;5269756;28;20063;-72
2022/05/20 01:25:31;;;;;;;5.53;3.10;;;4.80;99.90;;;;;;5270027;28;20073;-72
2022/05/20 01:28:02;;;;;;;7.38;3.70;;;4.90;99.90;;;;;;5269648;28;20121;-72
2022/05/20 01:30:33;;;;;;;9.07;3.88;;;4.50;99.90;;;;;;5269962;28;20028;-72
2022/05/20 01:33:06;;;;;;;5.63;3.78;;;5.00;99.90;;;;;;5269897;28;20028;-72
2022/05/20 01:35:44;;;;;;;5.18;3.03;;;4.90;99.90;;;;;;5269802;28;20046;-72
2022/05/20 01:38:15;;;;;;;6.05;3.70;;;4.60;99.90;;;;;;5268571;28;20062;-72
2022/05/20 01:41:08;;;;;;;10.35;4.20;;;4.60;99.90;;;;;;5269507;28;20484;-72
2022/05/20 01:43:44;;;;;;;7.10;3.53;;;4.60;99.90;;;;;;5269677;28;20020;-72
2022/05/20 01:46:24;;;;;;;6.55;3.55;;;5.10;99.90;;;;;;5269739;28;20484;-72
2022/05/20 01:49:28;;;;;;;9.52;3.70;;;4.90;99.90;;;;;;5269636;28;20502;-72
2022/05/20 01:52:09;;;;;;;6.40;3.75;;;4.60;99.90;;;;;;5269462;28;20027;-72
2022/05/20 01:55:05;;;;;;;5.50;3.70;;;4.50;99.90;;;;;;5269537;28;20021;-72
2022/05/20 01:58:09;;;;;;;8.52;4.20;;;4.40;99.90;;;;;;5269198;28;20031;-72
2022/05/20 02:00:41;;;;;;;6.78;3.70;;;4.90;99.90;;;;;;5269152;28;20032;-72
2022/05/20 02:03:42;;;;;;;8.60;4.00;;;4.20;99.90;;;;;;5269360;28;20020;-72
2022/05/20 02:06:13;;;;;;;8.57;4.30;;;4.60;99.90;;;;;;5269486;28;20024;-72
2022/05/20 02:08:56;;;;;;;7.90;4.03;;;4.40;99.90;;;;;;5269246;28;20368;-72
2022/05/20 02:11:47;;;;;;;7.43;3.95;;;4.30;99.90;;;;;;5268879;28;20145;-72
2022/05/20 02:14:54;;;;;;;8.10;3.67;;;4.10;99.90;;;;;;5269372;28;20024;-72
2022/05/20 02:17:34;;;;;;;6.65;3.55;;;4.70;99.90;;;;;;5265211;28;20032;-72
2022/05/20 02:20:19;;;;;;;5.68;3.90;;;4.40;99.90;;;;;;5269341;28;20415;-72
2022/05/20 02:22:55;;;;;;;7.15;3.88;;;4.20;99.90;;;;;;5269283;28;20083;-72
2022/05/20 02:25:30;;;;;;;8.18;3.90;;;4.20;99.90;;;;;;5268931;28;20024;-72
2022/05/20 02:28:12;;;;;;;7.40;4.40;;;4.40;99.90;;;;;;5268829;28;20395;-72
2022/05/20 02:30:45;;;;;;;5.50;3.40;;;4.60;99.90;;;;;;5269020;28;20055;-72
2022/05/20 02:33:20;;;;;;;7.38;3.80;;;4.80;99.90;;;;;;5269009;28;20055;-72
2022/05/20 02:35:51;;;;;;;6.00;3.55;;;4.40;99.90;;;;;;5269036;28;20627;-72
2022/05/20 02:38:23;;;;;;;6.20;4.05;;;3.90;99.90;;;;;;5268837;28;20028;-72
2022/05/20 02:40:54;;;;;;;5.90;3.42;;;4.10;99.90;;;;;;5268752;28;20031;-72
2022/05/20 02:43:25;;;;;;;5.45;3.25;;;4.30;99.90;;;;;;5269003;28;20431;-72
2022/05/20 02:45:57;;;;;;;6.63;3.70;;;4.70;99.90;;;;;;5268982;28;20051;-72
2022/05/20 02:48:28;;;;;;;7.35;3.53;;;4.40;99.90;;;;;;5268866;28;20020;-72
2022/05/20 02:50:58;;;;;;;4.70;3.35;;;4.40;99.90;;;;;;5268699;28;20547;-72
2022/05/20 02:53:29;;;;;;;6.75;3.60;;;4.00;99.90;;;;;;5268747;28;20032;-72
2022/05/20 02:56:00;;;;;;;9.65;3.72;;;4.40;99.90;;;;;;5268667;28;20499;-71
2022/05/20 03:04:10;;;;;;;8.67;4.33;;;4.20;99.90;;;;;;5268848;28;20047;-72
2022/05/20 03:06:47;;;;;;;6.47;3.65;;;4.60;99.90;;;;;;5268489;28;20016;-72
2022/05/20 03:09:21;;;;;;;5.97;3.90;;;4.60;99.90;;;;;;5268630;28;20024;-72
2022/05/20 03:11:52;;;;;;;8.60;3.90;;;4.10;99.90;;;;;;5268576;28;20488;-72
2022/05/20 03:14:24;;;;;;;6.47;3.83;;;4.10;99.90;;;;;;5268752;28;20051;-72
2022/05/20 03:16:59;;;;;;;8.38;4.30;;;4.20;99.90;;;;;;5268817;28;20418;-72
2022/05/20 03:19:31;;;;;;;9.27;4.68;;;4.80;99.90;;;;;;5268334;28;20115;-72
2022/05/20 03:22:03;;;;;;;7.15;4.22;;;4.90;99.90;;;;;;5267982;28;20020;-73
2022/05/20 03:24:34;;;;;;;7.50;4.10;;;4.60;99.90;;;;;;5272301;28;20028;-72
2022/05/20 03:27:05;;;;;;;11.85;4.20;;;4.70;99.90;;;;;;5272383;28;20048;-72
2022/05/20 03:29:36;;;;;;;13.95;5.85;;;4.70;99.90;;;;;;5271928;28;20072;-72
2022/05/20 03:32:08;;;;;;;13.70;7.30;;;4.80;99.90;;;;;;5272270;28;20036;-73
2022/05/20 03:34:40;;;;;;;14.60;5.63;;;4.90;99.90;;;;;;5272042;28;20020;-72
2022/05/20 03:37:11;;;;;;;12.60;5.47;;;4.80;99.90;;;;;;5272104;28;20031;-72
2022/05/20 03:39:41;;;;;;;11.75;6.20;;;4.70;99.90;;;;;;5271928;28;20040;-71
2022/05/20 03:42:12;;;;;;;13.05;6.45;;;5.30;99.90;;;;;;5272110;28;20502;-72
2022/05/20 03:44:43;;;;;;;11.35;6.97;;;5.30;99.90;;;;;;5271787;28;20025;-72
2022/05/20 03:47:14;;;;;;;9.90;5.75;;;5.20;99.90;;;;;;5271988;28;20031;-72
2022/05/20 03:49:46;;;;;;;12.20;6.05;;;5.30;99.90;;;;;;5271862;28;20119;-72
2022/05/20 03:52:17;;;;;;;14.00;6.25;;;5.40;99.90;;;;;;5271609;28;20067;-72
2022/05/20 03:54:48;;;;;;;10.10;4.93;;;5.40;99.90;;;;;;5271780;28;20460;-72
2022/05/20 03:57:19;;;;;;;15.00;6.20;;;5.40;99.90;;;;;;5271691;28;20031;-73
2022/05/20 03:59:50;;;;;;;12.75;6.05;;;5.50;99.90;;;;;;5271478;28;20043;-72
2022/05/20 04:02:21;;;;;;;14.77;7.18;;;6.00;99.90;;;;;;5271481;28;20036;-74
2022/05/20 04:04:53;;;;;;;12.60;5.38;;;5.90;99.90;;;;;;5270238;28;20479;-72
2022/05/20 04:07:26;;;;;;;12.18;5.47;;;6.20;99.90;;;;;;5271614;28;20107;-72
2022/05/20 04:09:56;;;;;;;14.88;5.90;;;6.20;99.90;;;;;;5271538;28;20012;-72
2022/05/20 04:12:40;;;;;;;13.25;6.32;;;6.20;99.90;;;;;;5271526;28;20054;-73
2022/05/20 04:15:14;;;;;;;13.55;6.05;;;6.40;99.90;;;;;;5271484;28;20016;-72
2022/05/20 04:17:45;;;;;;;14.70;6.72;;;6.60;99.90;;;;;;5271346;28;20444;-72
2022/05/20 04:20:16;;;;;;;14.30;6.30;;;6.80;99.90;;;;;;5271024;28;20036;-72
2022/05/20 04:22:46;;;;;;;13.82;6.28;;;6.60;99.90;;;;;;5271222;28;20038;-71
2022/05/20 04:25:17;;;;;;;18.67;7.43;;;6.80;99.90;;;;;;5271247;28;20087;-72
2022/05/20 04:27:48;;;;;;;12.63;6.65;;;7.00;99.90;;;;;;5270925;28;20384;-72
2022/05/20 04:30:19;;;;;;;17.35;8.00;;;7.10;99.90;;;;;;5270853;28;20113;-72
2022/05/20 04:32:57;;;;;;;17.92;8.40;;;7.30;99.90;;;;;;5271055;28;20421;-72
2022/05/20 04:35:32;;;;;;;18.23;8.88;;;7.30;99.90;;;;;;5270427;28;20040;-72
2022/05/20 04:38:15;;;;;;;17.90;8.40;;;6.90;99.90;;;;;;5270151;28;20048;-72
2022/05/20 04:49:30;;;;;;;14.18;7.50;;;8.20;99.90;;;;;;5271039;28;20456;-72
2022/05/20 04:52:01;;;;;;;15.27;6.55;;;8.50;99.90;;;;;;5270715;28;20024;-72
2022/05/20 04:54:50;;;;;;;14.73;7.60;;;8.80;99.90;;;;;;5270785;28;20024;-71
2022/05/20 04:57:36;;;;;;;11.38;7.10;;;8.80;99.90;;;;;;5270530;28;20028;-72
2022/05/20 05:00:21;;;;;;;15.60;8.27;;;9.10;99.90;;;;;;5270221;28;20147;-73
2022/05/20 05:02:52;;;;;;;15.55;8.23;;;9.40;99.90;;;;;;5270280;28;20032;-72
2022/05/20 05:05:27;;;;;;;15.13;7.32;;;9.70;99.90;;;;;;5270293;28;20106;-72
2022/05/20 05:07:58;;;;;;;12.88;7.13;;;9.90;99.90;;;;;;5270252;28;20028;-72
2022/05/20 05:10:30;;;;;;;12.70;7.50;;;10.10;99.90;;;;;;5268685;28;20356;-72
2022/05/20 05:13:02;;;;;;;13.10;6.93;;;10.10;99.90;;;;;;5270239;28;20046;-73
2022/05/20 05:15:32;;;;;;;13.18;7.65;;;10.30;99.90;;;;;;5270162;28;20040;-73
2022/05/20 05:18:11;;;;;;;13.98;6.72;;;10.70;99.90;;;;;;5269986;28;20024;-72
2022/05/20 05:20:47;;;;;;;13.27;7.57;;;10.80;99.90;;;;;;5269985;28;20511;-72
2022/05/20 05:23:19;;;;;;;12.52;6.78;;;10.60;99.90;;;;;;5270129;28;20444;-72
2022/05/20 05:25:50;;;;;;;11.20;6.75;;;10.70;99.90;;;;;;5270048;28;20035;-76
2022/05/20 05:28:22;;;;;;;11.65;6.20;;;11.20;99.90;;;;;;5269454;28;20040;-77
2022/05/20 05:30:53;;;;;;;11.52;6.30;;;11.40;99.90;;;;;;5269905;28;20043;-72
2022/05/20 05:33:24;;;;;;;9.35;6.00;;;11.30;99.90;;;;;;5269831;28;20020;-73
2022/05/20 05:35:55;;;;;;;10.88;5.95;;;11.50;99.90;;;;;;5258763;28;20539;-76
2022/05/20 05:38:26;;;;;;;12.32;6.13;;;11.80;99.90;;;;;;5264099;28;20502;-76
2022/05/20 05:40:58;;;;;;;12.05;5.88;;;12.10;99.90;;;;;;5263549;28;20032;-75
2022/05/20 05:43:29;;;;;;;10.73;5.57;;;12.10;99.90;;;;;;5263700;28;20380;-74
2022/05/20 05:46:00;;;;;;;7.57;5.07;;;12.80;99.90;;;;;;5263246;28;20016;-76
2022/05/20 05:48:31;;;;;;;10.00;4.85;;;13.20;99.90;;;;;;5265244;28;20024;-76
2022/05/20 05:51:02;;;;;;;11.50;4.88;;;13.60;99.90;;;;;;5263330;28;20448;-77
2022/05/20 05:53:33;;;;;;;8.93;5.07;;;13.90;99.90;;;;;;5265229;28;20036;-74
2022/05/20 05:56:06;;;;;;;7.80;4.50;;;14.10;99.90;;;;;;5263765;28;20038;-75
2022/05/20 05:58:40;;;;;;;9.52;4.95;;;14.40;99.90;;;;;;5262560;28;20475;-73
2022/05/20 06:01:12;;;;;;;11.63;6.38;;;14.40;99.90;;;;;;5261943;28;20680;-75
2022/05/20 06:03:43;;;;;;;13.27;7.40;;;14.80;99.90;;;;;;5252817;28;20017;-73
2022/05/20 06:06:14;;;;;;;11.35;6.95;;;14.90;99.90;;;;;;5265952;28;20454;-73
2022/05/20 06:08:45;;;;;;;8.00;5.50;;;14.90;99.90;;;;;;5269038;28;20024;-76
2022/05/20 06:11:16;;;;;;;9.38;6.03;;;14.90;99.90;;;;;;5268851;28;20169;-74
2022/05/20 06:13:46;;;;;;;8.07;4.70;;;15.00;99.90;;;;;;5268801;28;20043;-74
2022/05/20 06:16:19;;;;;;;6.68;4.45;;;15.20;99.90;;;;;;5267651;28;20032;-73
2022/05/20 06:18:53;;;;;;;9.45;5.30;;;15.60;99.90;;;;;;5267758;28;20062;-73
2022/05/20 06:21:24;;;;;;;8.23;4.07;;;15.70;99.90;;;;;;5268880;28;20175;-73
2022/05/20 06:23:55;;;;;;;6.88;3.45;;;16.00;99.90;;;;;;5269011;28;20157;-76
2022/05/20 06:26:29;;;;;;;5.05;2.50;;;15.80;99.90;;;;;;5268975;28;20028;-73
2022/05/20 06:29:00;;;;;;;5.03;2.70;;;16.00;99.90;;;;;;5268335;28;20047;-73
2022/05/20 06:31:31;;;;;;;3.85;2.50;;;16.10;99.90;;;;;;5268814;28;20024;-77
2022/05/20 06:34:03;;;;;;;4.20;2.40;;;16.50;99.90;;;;;;5269438;28;20028;-73
2022/05/20 06:42:12;;;;;;;7.78;3.70;;;16.70;99.90;;;;;;5290139;28;20092;-78
2022/05/20 06:44:45;;;;;;;7.57;3.85;;;16.70;99.90;;;;;;5289938;28;20012;-77
2022/05/20 06:47:16;;;;;;;8.90;4.10;;;16.70;99.90;;;;;;5289867;28;20068;-78
2022/05/20 06:49:46;;;;;;;6.50;3.17;;;16.60;99.90;;;;;;5289780;28;20008;-73
2022/05/20 06:52:17;;;;;;;4.60;2.50;;;17.00;99.90;;;;;;5289844;28;20063;-78
2022/05/20 06:54:48;;;;;;;5.00;2.45;;;17.20;99.90;;;;;;5289822;28;20043;-78
2022/05/20 06:57:20;;;;;;;5.63;2.35;;;17.40;99.90;;;;;;5292918;28;20031;-75
2022/05/20 06:59:52;;;;;;;4.45;2.90;;;17.30;99.90;;;;;;5293677;28;20019;-73
2022/05/20 07:02:22;;;;;;;4.25;2.63;;;17.00;99.90;;;;;;5293818;28;20050;-74
2022/05/20 07:04:57;;;;;;;12.90;2.63;;;17.40;99.90;;;;;;5278124;28;20009;-74
2022/05/20 07:07:30;;;;;;;5.50;2.50;;;17.80;99.90;;;;;;5251505;28;20032;-74
2022/05/20 07:10:03;;;;;;;6.60;3.88;;;17.30;99.90;;;;;;5250539;28;20021;-78
2022/05/20 07:12:38;;;;;;;4.18;2.35;;;17.70;99.90;;;;;;5262815;28;20059;-78
2022/05/20 07:15:13;;;;;;;4.53;2.22;;;17.80;99.90;;;;;;5272702;28;20816;-79
2022/05/20 07:17:50;;;;;;;2.42;1.48;;;18.30;99.90;;;;;;5272554;28;20024;-77
2022/05/20 07:20:26;;;;;;;5.38;2.42;;;18.30;99.90;;;;;;5272322;28;20035;-73
2022/05/20 07:22:59;;;;;;;4.88;2.72;;;18.00;99.90;;;;;;5272848;28;20026;-78
2022/05/20 07:25:33;;;;;;;5.35;3.10;;;17.90;99.90;;;;;;5272273;28;20032;-78
2022/05/20 07:28:10;;;;;;;3.30;2.03;;;18.40;99.90;;;;;;5271946;28;20028;-73
2022/05/20 07:30:43;;;;;;;4.15;2.00;;;18.70;99.90;;;;;;5272541;28;20040;-77
2022/05/20 07:33:17;;;;;;;4.72;2.08;;;18.80;99.90;;;;;;5272294;28;20492;-74
2022/05/20 07:35:52;;;;;;;5.60;2.80;;;18.60;99.90;;;;;;5272192;28;20028;-78
2022/05/20 07:38:28;;;;;;;5.95;2.97;;;18.60;99.90;;;;;;5271808;28;20415;-78
2022/05/20 07:41:02;;;;;;;5.88;2.22;;;18.80;99.90;;;;;;5271888;28;20043;-78
2022/05/20 07:43:36;;;;;;;3.83;2.05;;;19.10;99.90;;;;;;5271846;28;20051;-78
2022/05/20 07:46:09;;;;;;;5.18;2.70;;;19.10;99.90;;;;;;5271926;28;20032;-78
2022/05/20 07:48:42;;;;;;;7.93;2.70;;;19.20;99.90;;;;;;5270360;28;20042;-78
2022/05/20 07:51:20;;;;;;;5.47;2.92;;;19.50;99.90;;;;;;5271656;28;20032;-78
2022/05/20 07:54:03;;;;;;;5.25;2.60;;;19.30;99.90;;;;;;5271726;28;20052;-78
2022/05/20 07:56:49;;;;;;;2.53;1.75;;;19.70;99.90;;;;;;5271689;28;20398;-77
2022/05/20 07:59:27;;;;;;;4.07;2.45;;;19.70;99.90;;;;;;5271608;28;20020;-77
2022/05/20 08:02:01;;;;;;;4.75;2.53;;;19.50;99.90;;;;;;5271352;28;20075;-76
2022/05/20 08:07:38;;;;;;;4.70;1.90;;;19.70;99.90;;;;;;5292114;28;20042;-73
2022/05/20 08:10:18;;;;;;;2.60;1.50;;;19.70;99.90;;;;;;5292561;28;20042;-73
2022/05/20 08:12:53;;;;;;;1.98;1.50;;;20.20;99.90;;;;;;5292518;27;20030;-73
2022/05/20 08:15:29;;;;;;;3.05;1.70;;;20.10;99.90;;;;;;5290267;27;20019;-73
2022/05/20 08:18:08;;;;;;;3.22;1.25;;;20.00;99.90;;;;;;5289521;28;20049;-73
2022/05/20 08:20:45;;;;;;;3.47;1.85;;;20.60;99.90;;;;;;5291838;28;20033;-73
2022/05/20 08:23:20;;;;;;;3.03;1.55;;;20.40;99.90;;;;;;5291870;28;20394;-74
2022/05/20 08:25:55;;;;;;;3.33;1.42;;;20.40;99.90;;;;;;5291916;28;20374;-73
2022/05/20 08:28:30;;;;;;;4.40;1.30;;;20.60;99.90;;;;;;5290103;28;20486;-73
2022/05/20 08:31:05;;;;;;;3.03;1.60;;;20.00;99.90;;;;;;5291702;28;20027;-73
2022/05/20 08:33:37;;;;;;;4.25;1.50;;;19.30;99.90;;;;;;5291534;28;20478;-73
2022/05/20 08:36:09;;;;;;;3.75;1.45;;;19.90;99.90;;;;;;5291644;28;20035;-73
2022/05/20 08:38:41;;;;;;;4.80;1.85;;;19.90;99.90;;;;;;5291600;28;20051;-73
2022/05/20 08:41:38;;;;;;;4.22;1.75;;;20.50;99.90;;;;;;5291330;28;20062;-73
2022/05/20 08:44:16;;;;;;;2.75;1.80;;;20.60;99.90;;;;;;5291644;28;20058;-73
2022/05/20 08:47:22;;;;;;;3.00;1.90;;;20.80;99.90;;;;;;5291504;28;20106;-73
2022/05/20 08:50:12;;;;;;;2.90;1.65;;;20.90;99.90;;;;;;5291402;28;20032;-73
2022/05/20 08:52:47;;;;;;;4.20;1.48;;;20.90;99.90;;;;;;5291289;28;20486;-74
2022/05/20 08:55:20;;;;;;;2.53;1.60;;;21.30;99.90;;;;;;5289207;28;20173;-74
2022/05/20 08:58:07;;;;;;;3.95;1.40;;;21.20;99.90;;;;;;5281530;28;20023;-74
2022/05/20 09:00:40;;;;;;;2.45;1.40;;;21.60;99.90;;;;;;5288787;28;20031;-74
2022/05/20 09:03:12;;;;;;;1.65;1.10;;;21.50;99.90;;;;;;5269128;28;20027;-76
2022/05/20 09:05:45;;;;;;;3.15;1.45;;;21.50;99.90;;;;;;5284680;28;20012;-74
2022/05/20 09:08:28;;;;;;;4.07;1.38;;;21.60;99.90;;;;;;5290303;28;20020;-78
2022/05/20 09:11:05;;;;;;;3.00;1.23;;;21.60;99.90;;;;;;5291576;28;20020;-74
2022/05/20 09:16:38;;;;;;;0.93;0.68;;;21.70;99.90;;;;;;5291842;28;20018;-79
2022/05/20 09:19:14;;;;;;;1.50;0.80;;;21.30;99.90;;;;;;5289454;28;20031;-81
2022/05/20 09:22:24;;;;;;;1.33;0.88;;;21.50;99.90;;;;;;5290899;28;20039;-81
2022/05/20 09:24:58;;;;;;;1.13;0.82;;;21.90;99.90;;;;;;5291063;28;20483;-81
2022/05/20 09:27:39;;;;;;;1.05;0.75;;;21.90;99.90;;;;;;5291004;28;20035;-80
2022/05/20 09:30:24;;;;;;;1.05;0.82;;;21.30;99.90;;;;;;5291389;28;20054;-81
2022/05/20 09:33:26;;;;;;;2.80;1.23;;;21.30;99.90;;;;;;5291386;28;20417;-81
2022/05/20 09:36:02;;;;;;;3.17;0.85;;;21.40;99.90;;;;;;5274292;28;20077;-81
2022/05/20 09:38:43;;;;;;;1.42;0.93;;;21.30;98.80;;;;;;5269993;28;20012;-81
2022/05/20 09:41:21;;;;;;;3.30;0.80;;;21.60;99.90;;;;;;5270058;28;20028;-81
2022/05/20 09:44:06;;;;;;;1.85;0.90;;;21.70;99.90;;;;;;5269645;28;20032;-81
2022/05/20 09:46:51;;;;;;;2.72;0.93;;;21.20;99.90;;;;;;5269911;28;20024;-81
2022/05/20 09:49:37;;;;;;;2.80;1.02;;;21.20;99.90;;;;;;5269765;28;20055;-81
2022/05/20 09:52:39;;;;;;;2.47;1.08;;;22.10;99.90;;;;;;5269663;28;20032;-73
2022/05/20 09:55:29;;;;;;;5.97;2.88;;;21.80;99.90;;;;;;5269499;28;20178;-73
2022/05/20 09:58:19;;;;;;;;;;;22.50;99.90;;;;;;5269653;28;20055;-79
2022/05/20 10:01:12;;;;;;;2.53;0.90;;;22.40;99.90;;;;;;5269495;28;19920;-82
2022/05/20 10:03:58;;;;;;;1.48;0.80;;;21.90;99.90;;;;;;5269658;28;20016;-82
2022/05/20 10:06:50;;;;;;;2.47;1.00;;;22.00;98.20;;;;;;5269303;28;20051;-82
2022/05/20 10:09:32;;;;;;;1.88;0.80;;;22.70;99.90;;;;;;5269657;28;20475;-81
2022/05/20 10:12:38;;;;;;;2.90;1.10;;;21.70;96.60;;;;;;5269747;28;20032;-81
2022/05/20 10:15:22;;;;;;;3.75;0.90;;;22.50;99.90;;;;;;5248161;28;20032;-80
2022/05/20 10:18:07;;;;;;;3.00;1.23;;;22.50;99.80;;;;;;5279699;28;20135;-78
2022/05/20 10:20:45;;;;;;;4.30;1.30;;;22.40;95.30;;;;;;5290208;28;20027;-80
2022/05/20 10:23:22;;;;;;;3.03;1.35;;;22.10;94.30;;;;;;5290196;28;20467;-74
2022/05/20 10:26:25;;;;;;;2.00;1.00;;;22.10;96.20;;;;;;5290199;28;20024;-81
2022/05/20 10:32:37;;;;;;;4.70;0.95;;;22.70;95.70;;;;;;5248845;28;20063;-81
2022/05/20 10:35:25;;;;;;;4.07;1.25;;;22.50;92.40;;;;;;5257670;28;20043;-80
2022/05/20 10:38:49;;;;;;;4.93;1.08;;;22.00;89.00;;;;;;5268898;28;20148;-78
2022/05/20 10:41:47;;;;;;;3.35;1.00;;;22.20;87.80;;;;;;5260921;28;20044;-79
2022/05/20 10:51:19;;;;;;;1.70;0.80;;;23.00;97.20;;;;;;5268910;28;20379;-78
2022/05/20 10:54:25;;;;;;;4.30;0.85;;;23.10;91.40;;;;;;5269024;28;20028;-79
2022/05/20 10:57:26;;;;;;;4.90;1.00;;;22.90;92.90;;;;;;5268780;28;20028;-77
2022/05/20 11:00:23;;;;;;;2.88;0.70;;;22.50;88.50;;;;;;5268880;28;20067;-73
2022/05/20 11:03:14;;;;;;;2.65;0.95;;;22.90;92.80;;;;;;5268922;28;20036;-73
2022/05/20 11:06:13;;;;;;;2.58;1.00;;;21.80;80.70;;;;;;5282947;28;20027;-72
2022/05/20 11:08:57;;;;;;;4.55;0.93;;;22.80;92.00;;;;;;5290568;28;20023;-79
2022/05/20 11:11:52;;;;;;;1.63;0.90;;;23.30;91.10;;;;;;5290051;28;20035;-76
2022/05/20 11:14:45;;;;;;;4.28;0.98;;;23.00;88.70;;;;;;5290272;28;20020;-79
2022/05/20 11:17:34;;;;;;;2.53;1.10;;;23.20;91.00;;;;;;5289681;28;20378;-78
2022/05/20 11:20:30;;;;;;;2.20;1.13;;;23.10;87.70;;;;;;5290112;28;20035;-79
2022/05/20 11:23:23;;;;;;;4.85;1.27;;;23.20;87.10;;;;;;5289849;28;20039;-72
2022/05/20 11:26:27;;;;;;;3.08;1.00;;;22.90;87.90;;;;;;5289473;28;20044;-77
2022/05/20 11:29:35;;;;;;;2.55;0.90;;;22.80;88.10;;;;;;5289158;28;20040;-77
2022/05/20 11:32:12;;;;;;;1.58;1.10;;;22.60;83.70;;;;;;5279616;28;20043;-77
2022/05/20 11:35:18;;;;;;;1.38;1.15;;;22.90;84.60;;;;;;5274107;28;20015;-76
2022/05/20 11:38:14;;;;;;;5.10;1.23;;;23.10;88.80;;;;;;5289503;28;20367;-77
2022/05/20 11:41:24;;;;;;;7.85;1.20;;;22.50;86.60;;;;;;5289433;28;20055;-76
2022/05/20 11:44:24;;;;;;;30.38;3.63;;;23.50;87.30;;;;;;5289112;28;20097;-71
2022/05/20 11:47:19;;;;;;;3.38;1.35;;;23.10;84.40;;;;;;5293040;28;20045;-78
2022/05/20 11:50:03;;;;;;;5.40;0.75;;;23.40;85.90;;;;;;5293112;28;20375;-77
2022/05/20 11:52:52;;;;;;;8.25;1.40;;;22.50;84.10;;;;;;5293056;28;20398;-77
2022/05/20 11:55:43;;;;;;;3.80;1.13;;;23.00;84.20;;;;;;5291664;28;20031;-76
2022/05/20 11:58:46;;;;;;;2.58;0.90;;;23.50;87.70;;;;;;5292639;28;20428;-73
2022/05/20 12:01:22;;;;;;;6.70;1.20;;;23.40;84.10;;;;;;5292361;28;20035;-72
2022/05/20 12:04:12;;;;;;;4.30;1.05;;;23.40;85.80;;;;;;5292533;28;20114;-71
2022/05/20 12:07:07;;;;;;;4.57;0.88;;;23.10;84.40;;;;;;5292659;28;20077;-75
2022/05/20 12:09:48;;;;;;;3.42;0.65;;;23.10;83.50;;;;;;5292479;28;20067;-76
2022/05/20 12:12:48;;;;;;;4.80;0.82;;;22.90;82.80;;;;;;5292794;28;20032;-77
2022/05/20 12:15:26;;;;;;;6.70;1.58;;;22.90;84.60;;;;;;5292460;28;20036;-76
2022/05/20 12:18:18;;;;;;;2.58;0.82;;;23.60;82.90;;;;;;5292431;28;20020;-76
2022/05/20 12:26:52;;;;;;;2.38;0.60;;;23.20;80.10;;;;;;5292668;28;20489;-75
2022/05/20 12:29:45;;;;;;;2.05;1.00;;;22.80;81.20;;;;;;5291854;28;20067;-75
2022/05/20 12:32:36;;;;;;;1.98;1.05;;;23.50;81.10;;;;;;5292223;28;20020;-76
2022/05/20 12:35:17;;;;;;;2.05;0.90;;;23.60;81.90;;;;;;5282415;28;20464;-77
2022/05/20 12:37:49;;;;;;;2.85;0.57;;;23.80;83.10;;;;;;5270866;28;20035;-77
2022/05/20 12:40:25;;;;;;;2.47;1.10;;;23.60;78.20;;;;;;5270839;28;20038;-75
2022/05/20 12:43:00;;;;;;;1.60;0.93;;;23.20;77.20;;;;;;5270782;28;20361;-71
2022/05/20 12:45:52;;;;;;;0.98;0.60;;;23.80;79.50;;;;;;5270580;28;20036;-75
2022/05/20 12:48:30;;;;;;;8.35;0.98;;;23.30;75.70;;;;;;5270686;28;20024;-76
2022/05/20 12:51:10;;;;;;;3.37;0.90;;;23.60;78.20;;;;;;5270608;28;20048;-76
2022/05/20 12:53:48;;;;;;;1.58;0.70;;;23.10;77.80;;;;;;5270612;28;20058;-76
2022/05/20 12:56:32;;;;;;;1.23;0.80;;;23.80;78.80;;;;;;5270552;28;20056;-75
2022/05/20 12:59:24;;;;;;;2.08;1.00;;;23.30;73.90;;;;;;5270609;28;20100;-74
2022/05/20 13:01:59;;;;;;;3.15;1.00;;;23.00;77.30;;;;;;5270306;28;20028;-75
2022/05/20 13:04:40;;;;;;;3.75;0.77;;;23.40;78.70;;;;;;5270182;28;20356;-72
2022/05/20 13:07:17;;;;;;;1.27;0.90;;;23.10;75.90;;;;;;5270347;28;20149;-71
2022/05/20 13:09:51;;;;;;;2.67;1.00;;;23.40;73.70;;;;;;5270397;28;20039;-77
2022/05/20 13:12:24;;;;;;;1.30;0.80;;;23.60;73.30;;;;;;5270443;28;20024;-76
2022/05/20 13:15:06;;;;;;;3.85;1.10;;;23.50;77.90;;;;;;5270131;28;20031;-76
2022/05/20 13:17:40;;;;;;;3.58;1.08;;;22.50;73.60;;;;;;5270048;28;20066;-76
2022/05/20 13:20:13;;;;;;;3.45;0.95;;;22.60;74.30;;;;;;5269933;28;20028;-75
2022/05/20 13:22:51;;;;;;;3.05;1.13;;;22.80;74.00;;;;;;5270154;28;20107;-76
2022/05/20 13:25:25;;;;;;;2.35;0.82;;;23.10;75.70;;;;;;5269998;27;20028;-75
2022/05/20 13:27:59;;;;;;;1.77;0.80;;;23.40;75.20;;;;;;5269834;28;20039;-73
2022/05/20 13:30:37;;;;;;;1.48;0.85;;;23.40;73.50;;;;;;5269632;28;20052;-76
2022/05/20 13:33:10;;;;;;;4.28;0.82;;;22.70;73.20;;;;;;5269953;28;20544;-76
2022/05/20 13:36:00;;;;;;;2.53;0.80;;;23.60;75.90;;;;;;5283717;28;20103;-76
2022/05/20 13:38:43;;;;;;;1.52;0.70;;;22.80;71.10;;;;;;5291100;28;20023;-76
2022/05/20 13:41:17;;;;;;;3.75;1.10;;;22.60;75.00;;;;;;5290728;28;20034;-76
2022/05/20 13:43:54;;;;;;;2.20;1.00;;;23.00;74.20;;;;;;5290797;28;20031;-76
2022/05/20 13:49:31;;;;;;;4.50;0.80;;;22.30;72.30;;;;;;5290777;28;20556;-75
2022/05/20 13:52:13;;;;;;;7.30;1.10;;;23.60;75.50;;;;;;5290750;28;20489;-75
2022/05/20 13:54:57;;;;;;;5.70;0.85;;;22.90;72.80;;;;;;5290516;28;20463;-75
2022/05/20 13:57:52;;;;;;;2.47;0.85;;;23.60;75.20;;;;;;5290323;28;20035;-75
2022/05/20 14:00:47;;;;;;;3.38;1.33;;;23.50;73.70;;;;;;5290441;28;20414;-75
2022/05/20 14:03:28;;;;;;;4.20;0.90;;;22.70;74.20;;;;;;5290402;28;20039;-75
2022/05/20 14:06:17;;;;;;;2.92;1.30;;;23.40;72.30;;;;;;5272840;28;20433;-75
2022/05/20 14:08:58;;;;;;;1.88;1.02;;;22.90;72.70;;;;;;5269416;28;20030;-75
2022/05/20 14:11:52;;;;;;;0.90;0.60;;;23.50;73.70;;;;;;5269308;28;20036;-73
2022/05/20 14:14:33;;;;;;;6.03;0.73;;;23.50;74.70;;;;;;5269257;28;20059;-74
2022/05/20 14:17:11;;;;;;;1.70;0.70;;;23.00;71.90;;;;;;5269189;28;20036;-73
2022/05/20 14:19:48;;;;;;;2.58;0.80;;;23.60;73.70;;;;;;5269048;28;20020;-75
2022/05/20 14:22:35;;;;;;;3.72;1.00;;;23.40;75.10;;;;;;5269140;28;20023;-75
2022/05/20 14:25:35;;;;;;;1.80;0.82;;;23.90;75.00;;;;;;5269309;28;20442;-71
2022/05/20 14:28:22;;;;;;;1.77;0.77;;;22.90;72.70;;;;;;5245874;28;20036;-74
2022/05/20 14:31:00;;;;;;;3.28;1.20;;;23.20;75.10;;;;;;5246044;28;20044;-74
2022/05/20 14:33:46;;;;;;;2.75;1.00;;;23.30;77.20;;;;;;5245697;28;20537;-74